NUA0558 DNMM-DNAA
Flight info
| Callsign | NUA0558 |
|---|---|
| Flight time | 0h 51m |
| Altitude | 35000 |
| Route | IBA1Q IBA UR778 KELIG UW951 MESES MESES1N |
| Aircraft | A321/M-SDE3FGHIRWY/LB1 |
Departure
| Time | 2026-05-09 11:21 |
|---|---|
| Airport | Murtala Muhammed International Airport (DNMM) |
Arrival
| Time | 2026-05-09 12:12 |
|---|---|
| Airport | Nnamdi Azikiwe International Airport (DNAA) |
| Time | Latitude | Longitude | Altitude | Speed | Heading |
|---|---|---|---|---|---|
| 2026-05-09 11:19 | 6.59574 | 3.33035 | 142 ft | 17 kts | 359° |
| 2026-05-09 11:19 | 6.59657 | 3.32994 | 144 ft | 12 kts | 278° |
| 2026-05-09 11:20 | 6.59655 | 3.32918 | 145 ft | 10 kts | 270° |
| 2026-05-09 11:20 | 6.59606 | 3.32893 | 144 ft | 12 kts | 182° |
| 2026-05-09 11:20 | 6.59323 | 3.32896 | 137 ft | 76 kts | 179° |
| 2026-05-09 11:20 | 6.58587 | 3.32905 | 124 ft | 133 kts | 180° |
| 2026-05-09 11:21 | 6.57520 | 3.32920 | 311 ft | 159 kts | 180° |
| 2026-05-09 11:21 | 6.56449 | 3.32936 | 1090 ft | 150 kts | 180° |
| 2026-05-09 11:21 | 6.55448 | 3.33233 | 1650 ft | 155 kts | 147° |
| 2026-05-09 11:21 | 6.54811 | 3.34153 | 1963 ft | 176 kts | 102° |
| 2026-05-09 11:22 | 6.55072 | 3.35405 | 2128 ft | 198 kts | 52° |
| 2026-05-09 11:22 | 6.56146 | 3.36369 | 2294 ft | 219 kts | 36° |
| 2026-05-09 11:22 | 6.57466 | 3.37278 | 2421 ft | 241 kts | 33° |
| 2026-05-09 11:22 | 6.58953 | 3.38247 | 2647 ft | 266 kts | 33° |
| 2026-05-09 11:23 | 6.60504 | 3.39324 | 3216 ft | 273 kts | 36° |
| 2026-05-09 11:23 | 6.62043 | 3.40469 | 3944 ft | 276 kts | 38° |
| 2026-05-09 11:23 | 6.63572 | 3.41640 | 4704 ft | 277 kts | 39° |
| 2026-05-09 11:23 | 6.65097 | 3.42824 | 5475 ft | 277 kts | 39° |
| 2026-05-09 11:24 | 6.66602 | 3.43997 | 6227 ft | 277 kts | 39° |
| 2026-05-09 11:24 | 6.68131 | 3.45185 | 6946 ft | 277 kts | 40° |
| 2026-05-09 11:24 | 6.69657 | 3.46368 | 7672 ft | 276 kts | 40° |
| 2026-05-09 11:24 | 6.71172 | 3.47542 | 8412 ft | 274 kts | 41° |
| 2026-05-09 11:25 | 6.72683 | 3.48711 | 9143 ft | 272 kts | 41° |
| 2026-05-09 11:25 | 6.74186 | 3.49874 | 9854 ft | 271 kts | 42° |
| 2026-05-09 11:25 | 6.75669 | 3.51024 | 10295 ft | 279 kts | 42° |
| 2026-05-09 11:25 | 6.77258 | 3.52265 | 10423 ft | 298 kts | 41° |
| 2026-05-09 11:26 | 6.78951 | 3.53583 | 10529 ft | 317 kts | 41° |
| 2026-05-09 11:26 | 6.80741 | 3.54974 | 10651 ft | 333 kts | 41° |
| 2026-05-09 11:26 | 6.82612 | 3.56423 | 10957 ft | 343 kts | 41° |
| 2026-05-09 11:26 | 6.84522 | 3.57897 | 11402 ft | 347 kts | 40° |
| 2026-05-09 11:27 | 6.86453 | 3.59386 | 11883 ft | 351 kts | 40° |
| 2026-05-09 11:27 | 6.88407 | 3.60888 | 12368 ft | 355 kts | 40° |
| 2026-05-09 11:27 | 6.90379 | 3.62408 | 12851 ft | 359 kts | 40° |
| 2026-05-09 11:27 | 6.92376 | 3.63952 | 13307 ft | 363 kts | 40° |
| 2026-05-09 11:28 | 6.94374 | 3.65498 | 13787 ft | 368 kts | 40° |
| 2026-05-09 11:28 | 6.96414 | 3.67075 | 14197 ft | 371 kts | 40° |
| 2026-05-09 11:28 | 6.98471 | 3.68665 | 14604 ft | 375 kts | 40° |
| 2026-05-09 11:28 | 7.00551 | 3.70271 | 15018 ft | 377 kts | 40° |
| 2026-05-09 11:29 | 7.02639 | 3.71886 | 15392 ft | 380 kts | 40° |
| 2026-05-09 11:29 | 7.04747 | 3.73520 | 15755 ft | 383 kts | 40° |
| 2026-05-09 11:29 | 7.06868 | 3.75164 | 16110 ft | 385 kts | 40° |
| 2026-05-09 11:29 | 7.08996 | 3.76815 | 16458 ft | 388 kts | 40° |
| 2026-05-09 11:30 | 7.11141 | 3.78481 | 16783 ft | 390 kts | 40° |
| 2026-05-09 11:30 | 7.13271 | 3.80136 | 17097 ft | 392 kts | 39° |
| 2026-05-09 11:30 | 7.15441 | 3.81818 | 17400 ft | 394 kts | 39° |
| 2026-05-09 11:30 | 7.17618 | 3.83504 | 17700 ft | 396 kts | 39° |
| 2026-05-09 11:31 | 7.19813 | 3.85206 | 17966 ft | 398 kts | 39° |
| 2026-05-09 11:31 | 7.22019 | 3.86913 | 18236 ft | 401 kts | 39° |
| 2026-05-09 11:31 | 7.24237 | 3.88630 | 18471 ft | 403 kts | 39° |
| 2026-05-09 11:31 | 7.26468 | 3.90354 | 18708 ft | 404 kts | 39° |
| 2026-05-09 11:32 | 7.28708 | 3.92085 | 18946 ft | 406 kts | 39° |
| 2026-05-09 11:32 | 7.30924 | 3.93799 | 19187 ft | 407 kts | 39° |
| 2026-05-09 11:32 | 7.33178 | 3.95545 | 19429 ft | 409 kts | 39° |
| 2026-05-09 11:32 | 7.35442 | 3.97304 | 19665 ft | 410 kts | 39° |
| 2026-05-09 11:33 | 7.37572 | 3.99211 | 19889 ft | 410 kts | 49° |
| 2026-05-09 11:33 | 7.39330 | 4.01463 | 20125 ft | 409 kts | 58° |
| 2026-05-09 11:33 | 7.42868 | 4.05997 | 20593 ft | 414 kts | 50° |
| 2026-05-09 11:34 | 7.44764 | 4.08188 | 20844 ft | 415 kts | 51° |
| 2026-05-09 11:34 | 7.46634 | 4.10356 | 21096 ft | 416 kts | 51° |
| 2026-05-09 11:34 | 7.48539 | 4.12570 | 21358 ft | 418 kts | 51° |
| 2026-05-09 11:34 | 7.50444 | 4.14787 | 21608 ft | 419 kts | 51° |
| 2026-05-09 11:35 | 7.52357 | 4.17017 | 21868 ft | 421 kts | 51° |
| 2026-05-09 11:35 | 7.54277 | 4.19253 | 22139 ft | 422 kts | 51° |
| 2026-05-09 11:35 | 7.56206 | 4.21495 | 22397 ft | 424 kts | 51° |
| 2026-05-09 11:35 | 7.58146 | 4.23744 | 22657 ft | 425 kts | 51° |
| 2026-05-09 11:36 | 7.60064 | 4.25973 | 22899 ft | 427 kts | 51° |
| 2026-05-09 11:36 | 7.62017 | 4.28245 | 23150 ft | 428 kts | 51° |
| 2026-05-09 11:36 | 7.63971 | 4.30521 | 23398 ft | 430 kts | 51° |
| 2026-05-09 11:36 | 7.65927 | 4.32800 | 23616 ft | 431 kts | 51° |
| 2026-05-09 11:37 | 7.67896 | 4.35095 | 23822 ft | 433 kts | 51° |
| 2026-05-09 11:37 | 7.69872 | 4.37394 | 24024 ft | 434 kts | 51° |
| 2026-05-09 11:37 | 7.71852 | 4.39698 | 24225 ft | 435 kts | 51° |
| 2026-05-09 11:37 | 7.73791 | 4.42038 | 24422 ft | 435 kts | 55° |
| 2026-05-09 11:38 | 7.75395 | 4.44622 | 24615 ft | 435 kts | 62° |
| 2026-05-09 11:38 | 7.76860 | 4.47262 | 24810 ft | 436 kts | 62° |
| 2026-05-09 11:38 | 7.78347 | 4.49929 | 25017 ft | 437 kts | 62° |
| 2026-05-09 11:38 | 7.79842 | 4.52604 | 25205 ft | 438 kts | 62° |
| 2026-05-09 11:39 | 7.81345 | 4.55294 | 25408 ft | 439 kts | 62° |
| 2026-05-09 11:39 | 7.82845 | 4.57979 | 25603 ft | 440 kts | 62° |
| 2026-05-09 11:39 | 7.84355 | 4.60681 | 25801 ft | 441 kts | 62° |
| 2026-05-09 11:40 | 7.87353 | 4.66058 | 26186 ft | 443 kts | 62° |
| 2026-05-09 11:40 | 7.88867 | 4.68780 | 26396 ft | 444 kts | 62° |
| 2026-05-09 11:40 | 7.90385 | 4.71503 | 26577 ft | 445 kts | 62° |
| 2026-05-09 11:40 | 7.91904 | 4.74227 | 26765 ft | 447 kts | 62° |
| 2026-05-09 11:41 | 7.93429 | 4.76965 | 26939 ft | 448 kts | 62° |
| 2026-05-09 11:41 | 7.94961 | 4.79712 | 27113 ft | 449 kts | 62° |
| 2026-05-09 11:41 | 7.96474 | 4.82429 | 27278 ft | 450 kts | 62° |
| 2026-05-09 11:41 | 7.98013 | 4.85192 | 27430 ft | 451 kts | 62° |
| 2026-05-09 11:42 | 7.99552 | 4.87961 | 27595 ft | 452 kts | 62° |
| 2026-05-09 11:42 | 8.01091 | 4.90736 | 27746 ft | 453 kts | 62° |
| 2026-05-09 11:42 | 8.02637 | 4.93525 | 27887 ft | 454 kts | 62° |
| 2026-05-09 11:42 | 8.04158 | 4.96264 | 28021 ft | 455 kts | 62° |
| 2026-05-09 11:43 | 8.05712 | 4.99054 | 28153 ft | 455 kts | 62° |
| 2026-05-09 11:43 | 8.07268 | 5.01846 | 28285 ft | 456 kts | 62° |
| 2026-05-09 11:43 | 8.08826 | 5.04645 | 28416 ft | 457 kts | 62° |
| 2026-05-09 11:43 | 8.10387 | 5.07449 | 28534 ft | 457 kts | 62° |
| 2026-05-09 11:44 | 8.11928 | 5.10221 | 28678 ft | 457 kts | 62° |
| 2026-05-09 11:44 | 8.13489 | 5.13032 | 28789 ft | 458 kts | 62° |
| 2026-05-09 11:44 | 8.15046 | 5.15833 | 28929 ft | 457 kts | 61° |
| 2026-05-09 11:44 | 8.16603 | 5.18631 | 29074 ft | 457 kts | 61° |
| 2026-05-09 11:45 | 8.18158 | 5.21430 | 29223 ft | 457 kts | 61° |
| 2026-05-09 11:45 | 8.19714 | 5.24228 | 29371 ft | 456 kts | 61° |
| 2026-05-09 11:45 | 8.21268 | 5.27028 | 29522 ft | 456 kts | 61° |
| 2026-05-09 11:45 | 8.22815 | 5.29816 | 29677 ft | 455 kts | 61° |
| 2026-05-09 11:46 | 8.24347 | 5.32578 | 29825 ft | 455 kts | 61° |
| 2026-05-09 11:46 | 8.25889 | 5.35356 | 29964 ft | 455 kts | 61° |
| 2026-05-09 11:46 | 8.27435 | 5.38143 | 30108 ft | 454 kts | 61° |
| 2026-05-09 11:46 | 8.28984 | 5.40933 | 30231 ft | 454 kts | 61° |
| 2026-05-09 11:47 | 8.30531 | 5.43719 | 30354 ft | 454 kts | 61° |
| 2026-05-09 11:47 | 8.32080 | 5.46505 | 30489 ft | 454 kts | 61° |
| 2026-05-09 11:47 | 8.33626 | 5.49284 | 30606 ft | 454 kts | 61° |
| 2026-05-09 11:47 | 8.35150 | 5.52030 | 30743 ft | 453 kts | 61° |
| 2026-05-09 11:48 | 8.36693 | 5.54816 | 30883 ft | 453 kts | 61° |
| 2026-05-09 11:48 | 8.38231 | 5.57593 | 31023 ft | 453 kts | 61° |
| 2026-05-09 11:48 | 8.39771 | 5.60372 | 31164 ft | 453 kts | 61° |
| 2026-05-09 11:48 | 8.41315 | 5.63155 | 31315 ft | 452 kts | 61° |
| 2026-05-09 11:49 | 8.42853 | 5.65927 | 31454 ft | 452 kts | 61° |
| 2026-05-09 11:49 | 8.44389 | 5.68693 | 31597 ft | 452 kts | 60° |
| 2026-05-09 11:49 | 8.45927 | 5.71465 | 31751 ft | 452 kts | 60° |
| 2026-05-09 11:49 | 8.47462 | 5.74237 | 31912 ft | 451 kts | 60° |
| 2026-05-09 11:50 | 8.48973 | 5.76971 | 32070 ft | 451 kts | 60° |
| 2026-05-09 11:50 | 8.50501 | 5.79740 | 32221 ft | 451 kts | 60° |
| 2026-05-09 11:50 | 8.52026 | 5.82504 | 32388 ft | 450 kts | 60° |
| 2026-05-09 11:50 | 8.53557 | 5.85277 | 32553 ft | 450 kts | 60° |
| 2026-05-09 11:51 | 8.55084 | 5.88036 | 32732 ft | 449 kts | 60° |
| 2026-05-09 11:51 | 8.56610 | 5.90793 | 32886 ft | 449 kts | 60° |
| 2026-05-09 11:51 | 8.58137 | 5.93560 | 32925 ft | 449 kts | 60° |
| 2026-05-09 11:52 | 8.61170 | 5.99080 | 32927 ft | 449 kts | 60° |
| 2026-05-09 11:52 | 8.64191 | 6.04571 | 32937 ft | 449 kts | 60° |
| 2026-05-09 11:53 | 8.67231 | 6.10096 | 32930 ft | 449 kts | 60° |
| 2026-05-09 11:53 | 8.70244 | 6.15590 | 32927 ft | 449 kts | 60° |
| 2026-05-09 11:54 | 8.73280 | 6.21123 | 32927 ft | 449 kts | 60° |
| 2026-05-09 11:54 | 8.76298 | 6.26611 | 32569 ft | 448 kts | 60° |
| 2026-05-09 11:54 | 8.77833 | 6.29392 | 31341 ft | 457 kts | 60° |
| 2026-05-09 11:55 | 8.79405 | 6.32224 | 30233 ft | 464 kts | 60° |
| 2026-05-09 11:56 | 8.87372 | 6.46464 | 25674 ft | 457 kts | 56° |
| 2026-05-09 11:56 | 8.89336 | 6.48974 | 25012 ft | 453 kts | 51° |
| 2026-05-09 11:56 | 8.91374 | 6.51406 | 24356 ft | 450 kts | 51° |
| 2026-05-09 11:57 | 8.93385 | 6.53808 | 23725 ft | 446 kts | 51° |
| 2026-05-09 11:57 | 8.95387 | 6.56199 | 23001 ft | 442 kts | 51° |
| 2026-05-09 11:57 | 8.97359 | 6.58556 | 21911 ft | 446 kts | 51° |
| 2026-05-09 11:57 | 8.99368 | 6.60963 | 20855 ft | 449 kts | 51° |
| 2026-05-09 11:58 | 9.01362 | 6.63354 | 20409 ft | 437 kts | 51° |
| 2026-05-09 11:58 | 9.03308 | 6.65686 | 19826 ft | 429 kts | 51° |
| 2026-05-09 11:58 | 9.05224 | 6.67985 | 19197 ft | 423 kts | 51° |
| 2026-05-09 11:58 | 9.07111 | 6.70252 | 18558 ft | 419 kts | 51° |
| 2026-05-09 11:59 | 9.08947 | 6.72460 | 18026 ft | 415 kts | 51° |
| 2026-05-09 11:59 | 9.10667 | 6.74804 | 17491 ft | 410 kts | 61° |
| 2026-05-09 11:59 | 9.11784 | 6.77445 | 17000 ft | 406 kts | 75° |
| 2026-05-09 11:59 | 9.12227 | 6.80206 | 16492 ft | 404 kts | 87° |
| 2026-05-09 12:00 | 9.12006 | 6.83035 | 15973 ft | 403 kts | 99° |
| 2026-05-09 12:00 | 9.11506 | 6.85819 | 15431 ft | 400 kts | 99° |
| 2026-05-09 12:00 | 9.11013 | 6.88550 | 14910 ft | 397 kts | 99° |
| 2026-05-09 12:00 | 9.10516 | 6.91289 | 14360 ft | 394 kts | 99° |
| 2026-05-09 12:01 | 9.10020 | 6.94011 | 13815 ft | 391 kts | 99° |
| 2026-05-09 12:01 | 9.09536 | 6.96668 | 13362 ft | 369 kts | 99° |
| 2026-05-09 12:01 | 9.09082 | 6.99155 | 13062 ft | 352 kts | 99° |
| 2026-05-09 12:01 | 9.08651 | 7.01529 | 12395 ft | 337 kts | 99° |
| 2026-05-09 12:02 | 9.08236 | 7.03826 | 11700 ft | 321 kts | 98° |
| 2026-05-09 12:02 | 9.07841 | 7.06022 | 11173 ft | 314 kts | 98° |
| 2026-05-09 12:02 | 9.07461 | 7.08134 | 10887 ft | 294 kts | 98° |
| 2026-05-09 12:02 | 9.07103 | 7.10108 | 10454 ft | 285 kts | 97° |
| 2026-05-09 12:03 | 9.06750 | 7.12056 | 10229 ft | 277 kts | 97° |
| 2026-05-09 12:03 | 9.06523 | 7.13315 | 10074 ft | 273 kts | 97° |
| 2026-05-09 12:03 | 9.06184 | 7.15202 | 9858 ft | 269 kts | 96° |
| 2026-05-09 12:03 | 9.06066 | 7.17674 | 9699 ft | 264 kts | 78° |
| 2026-05-09 12:04 | 9.06637 | 7.19424 | 9583 ft | 263 kts | 62° |
| 2026-05-09 12:04 | 9.07322 | 7.20468 | 9488 ft | 264 kts | 51° |
| 2026-05-09 12:04 | 9.08707 | 7.21703 | 9365 ft | 268 kts | 37° |
| 2026-05-09 12:04 | 9.10221 | 7.22766 | 9197 ft | 269 kts | 38° |
| 2026-05-09 12:05 | 9.11764 | 7.23853 | 8702 ft | 271 kts | 37° |
| 2026-05-09 12:05 | 9.13285 | 7.24927 | 8187 ft | 274 kts | 37° |
| 2026-05-09 12:05 | 9.14863 | 7.26044 | 7696 ft | 276 kts | 37° |
| 2026-05-09 12:05 | 9.16410 | 7.27138 | 7496 ft | 262 kts | 37° |
| 2026-05-09 12:06 | 9.17828 | 7.28138 | 7324 ft | 243 kts | 37° |
| 2026-05-09 12:06 | 9.19187 | 7.29096 | 6963 ft | 237 kts | 37° |
| 2026-05-09 12:06 | 9.20440 | 7.30154 | 6564 ft | 232 kts | 54° |
| 2026-05-09 12:06 | 9.21088 | 7.31603 | 6312 ft | 227 kts | 79° |
| 2026-05-09 12:07 | 9.20986 | 7.33197 | 5815 ft | 231 kts | 108° |
| 2026-05-09 12:07 | 9.20171 | 7.34620 | 5342 ft | 236 kts | 124° |
| 2026-05-09 12:07 | 9.19210 | 7.35980 | 4855 ft | 239 kts | 125° |
| 2026-05-09 12:07 | 9.17995 | 7.37087 | 4434 ft | 234 kts | 159° |
| 2026-05-09 12:08 | 9.16431 | 7.37231 | 4292 ft | 226 kts | 194° |
| 2026-05-09 12:08 | 9.15066 | 7.36528 | 4068 ft | 223 kts | 215° |
| 2026-05-09 12:08 | 9.13812 | 7.35622 | 3790 ft | 220 kts | 216° |
| 2026-05-09 12:08 | 9.12567 | 7.34727 | 3509 ft | 219 kts | 216° |
| 2026-05-09 12:09 | 9.11324 | 7.33845 | 3255 ft | 217 kts | 215° |
| 2026-05-09 12:09 | 9.10105 | 7.32983 | 2965 ft | 207 kts | 215° |
| 2026-05-09 12:09 | 9.08981 | 7.32189 | 2729 ft | 188 kts | 216° |
| 2026-05-09 12:10 | 9.06158 | 7.30193 | 2106 ft | 150 kts | 215° |
| 2026-05-09 12:10 | 9.05300 | 7.29586 | 1922 ft | 151 kts | 216° |
| 2026-05-09 12:10 | 9.04442 | 7.28979 | 1739 ft | 150 kts | 217° |
| 2026-05-09 12:11 | 9.03587 | 7.28375 | 1528 ft | 148 kts | 216° |
| 2026-05-09 12:11 | 9.02739 | 7.27782 | 1350 ft | 148 kts | 216° |
| 2026-05-09 12:11 | 9.01916 | 7.27195 | 1146 ft | 146 kts | 217° |
| 2026-05-09 12:11 | 9.01143 | 7.26643 | 1112 ft | 110 kts | 214° |
| 2026-05-09 12:12 | 9.00660 | 7.26303 | 1104 ft | 64 kts | 215° |
| 2026-05-09 12:12 | 9.00384 | 7.26110 | 1104 ft | 34 kts | 215° |
| 2026-05-09 12:12 | 9.00235 | 7.26026 | 1106 ft | 22 kts | 195° |
| 2026-05-09 12:12 | 9.00097 | 7.26061 | 1104 ft | 20 kts | 118° |
| 2026-05-09 12:13 | 9.00159 | 7.26154 | 1106 ft | 16 kts | 34° |
| 2026-05-09 12:13 | 9.00245 | 7.26214 | 1101 ft | 14 kts | 36° |
| 2026-05-09 12:13 | 9.00319 | 7.26267 | 1105 ft | 12 kts | 36° |
| 2026-05-09 12:13 | 9.00380 | 7.26311 | 1109 ft | 11 kts | 35° |
| 2026-05-09 12:14 | 9.00478 | 7.26379 | 1107 ft | 21 kts | 34° |
| 2026-05-09 12:14 | 9.00590 | 7.26462 | 1109 ft | 18 kts | 52° |
| 2026-05-09 12:14 | 9.00563 | 7.26563 | 1113 ft | 15 kts | 132° |
| 2026-05-09 12:14 | 9.00484 | 7.26624 | 1108 ft | 14 kts | 148° |
| 2026-05-09 12:15 | 9.00450 | 7.26693 | 1116 ft | 11 kts | 79° |
| 2026-05-09 12:15 | 9.00473 | 7.26767 | 1120 ft | 14 kts | 81° |
| 2026-05-09 12:15 | 9.00418 | 7.26831 | 1118 ft | 12 kts | 146° |
| 2026-05-09 12:15 | 9.00416 | 7.26894 | 1119 ft | 9 kts | 59° |
| 2026-05-09 12:16 | 9.00425 | 7.26909 | 1113 ft | 0 kts | 59° |